createdAt,value
2022-12-03T00:01:20.900Z,20.02
2022-12-03T00:03:49.415Z,17.05
2022-12-03T00:06:19.276Z,16.55
2022-12-03T00:08:47.654Z,16.73
2022-12-03T00:11:16.096Z,18.40
2022-12-03T00:13:45.373Z,17.52
2022-12-03T00:16:13.920Z,14.48
2022-12-03T00:18:42.600Z,17.50
2022-12-03T00:21:10.981Z,13.98
2022-12-03T00:23:42.508Z,19.83
2022-12-03T00:26:11.108Z,15.32
2022-12-03T00:28:39.461Z,16.25
2022-12-03T00:31:07.939Z,12.73
2022-12-03T00:33:36.351Z,15.05
2022-12-03T00:36:05.170Z,16.27
2022-12-03T00:38:33.701Z,14.98
2022-12-03T00:41:03.991Z,16.35
2022-12-03T00:43:32.384Z,15.25
2022-12-03T00:46:01.041Z,13.63
2022-12-03T00:48:29.442Z,15.23
2022-12-03T00:50:57.817Z,12.98
2022-12-03T00:53:26.176Z,13.95
2022-12-03T00:55:54.531Z,15.43
2022-12-03T00:58:24.304Z,16.83
2022-12-03T01:00:52.656Z,13.65
2022-12-03T01:03:21.086Z,13.95
2022-12-03T01:05:49.483Z,14.10
2022-12-03T01:08:18.055Z,14.13
2022-12-03T01:10:46.414Z,17.10
2022-12-03T01:13:14.733Z,14.85
2022-12-03T01:15:44.534Z,14.85
2022-12-03T01:18:12.885Z,13.52
2022-12-03T01:20:41.238Z,14.18
2022-12-03T01:23:09.571Z,14.20
2022-12-03T01:25:37.955Z,14.02
2022-12-03T01:28:06.304Z,14.02
2022-12-03T01:30:55.181Z,13.90
2022-12-03T01:33:23.956Z,13.65
2022-12-03T01:35:52.407Z,16.00
2022-12-03T01:38:21.062Z,15.50
2022-12-03T01:40:49.868Z,15.27
2022-12-03T01:43:18.267Z,12.30
2022-12-03T01:45:46.737Z,13.52
2022-12-03T01:48:17.094Z,14.55
2022-12-03T01:50:47.179Z,13.60
2022-12-03T01:53:18.898Z,14.00
2022-12-03T01:55:49.084Z,13.45
2022-12-03T01:58:21.051Z,13.60
2022-12-03T02:00:49.534Z,16.98
2022-12-03T02:03:22.298Z,13.50
2022-12-03T02:05:52.352Z,13.73
2022-12-03T02:08:31.428Z,13.05
2022-12-03T02:11:03.424Z,12.88
2022-12-03T02:13:32.129Z,19.20
2022-12-03T02:16:00.646Z,15.02
2022-12-03T02:18:29.062Z,12.70
2022-12-03T02:21:05.732Z,13.45
2022-12-03T02:23:39.841Z,15.05
2022-12-03T02:26:09.904Z,12.75
2022-12-03T02:28:39.055Z,14.02
2022-12-03T02:31:08.073Z,15.27
2022-12-03T02:33:37.402Z,15.07
2022-12-03T02:36:06.641Z,15.63
2022-12-03T02:38:36.612Z,15.70
2022-12-03T02:41:08.678Z,16.73
2022-12-03T02:43:38.186Z,15.02
2022-12-03T02:46:09.283Z,12.52
2022-12-03T02:48:39.628Z,16.63
2022-12-03T02:51:10.196Z,19.45
2022-12-03T02:53:44.517Z,17.58
2022-12-03T02:56:16.768Z,16.17
2022-12-03T02:58:49.457Z,14.85
2022-12-03T03:01:18.851Z,14.52
2022-12-03T03:03:48.689Z,15.90
2022-12-03T03:06:19.384Z,14.93
2022-12-03T03:08:47.822Z,14.88
2022-12-03T03:11:16.229Z,14.07
2022-12-03T03:13:46.151Z,16.55
2022-12-03T03:16:14.676Z,13.23
2022-12-03T03:18:43.395Z,15.85
2022-12-03T03:21:13.032Z,10.23
2022-12-03T03:23:41.372Z,12.88
2022-12-03T03:26:12.379Z,12.77
2022-12-03T03:28:44.025Z,13.35
2022-12-03T03:31:16.992Z,16.13
2022-12-03T03:33:48.926Z,14.13
2022-12-03T03:36:18.090Z,14.63
2022-12-03T03:38:47.329Z,12.52
2022-12-03T03:41:17.384Z,12.95
2022-12-03T03:43:46.944Z,15.90
2022-12-03T03:46:17.907Z,10.20
2022-12-03T03:48:48.262Z,14.23
2022-12-03T03:51:17.454Z,13.45
2022-12-03T03:53:49.150Z,13.93
2022-12-03T03:56:20.091Z,13.65
2022-12-03T03:58:48.541Z,13.95
2022-12-03T04:01:19.583Z,12.18
2022-12-03T04:03:48.077Z,14.45
2022-12-03T04:06:16.821Z,11.93
2022-12-03T04:08:45.874Z,13.98
2022-12-03T04:11:31.566Z,12.23
2022-12-03T04:13:59.929Z,12.65
2022-12-03T04:16:29.936Z,13.10
2022-12-03T04:18:58.432Z,13.85
2022-12-03T04:21:44.392Z,10.73
2022-12-03T04:24:13.221Z,10.90
2022-12-03T04:26:59.069Z,11.18
2022-12-03T04:29:27.441Z,9.68
2022-12-03T04:32:14.860Z,14.45
2022-12-03T04:35:00.683Z,13.57
2022-12-03T04:37:29.122Z,13.27
2022-12-03T04:39:57.589Z,14.13
2022-12-03T04:42:26.242Z,14.77
2022-12-03T04:44:54.873Z,10.35
2022-12-03T04:47:24.799Z,15.57
2022-12-03T04:49:53.311Z,14.35
2022-12-03T04:52:22.352Z,13.10
2022-12-03T04:54:50.673Z,13.00
2022-12-03T04:57:19.002Z,12.55
2022-12-03T04:59:47.393Z,14.88
2022-12-03T05:02:15.803Z,14.45
2022-12-03T05:04:45.631Z,14.35
2022-12-03T05:07:14.062Z,14.20
2022-12-03T05:09:42.488Z,11.93
2022-12-03T05:12:11.390Z,13.65
2022-12-03T05:14:39.714Z,11.98
2022-12-03T05:17:08.125Z,12.73
2022-12-03T05:19:53.359Z,14.65
2022-12-03T05:22:23.036Z,12.27
2022-12-03T05:24:51.729Z,15.18
2022-12-03T05:27:23.936Z,15.15
2022-12-03T05:29:53.369Z,15.63
2022-12-03T05:32:21.784Z,14.32
2022-12-03T05:34:50.269Z,12.07
2022-12-03T05:37:18.693Z,11.77
2022-12-03T05:39:48.357Z,14.15
2022-12-03T05:42:34.230Z,13.27
2022-12-03T05:45:03.103Z,12.35
2022-12-03T05:47:31.630Z,15.40
2022-12-03T05:50:00.131Z,14.93
2022-12-03T05:52:28.531Z,15.48
2022-12-03T05:54:58.267Z,14.20
2022-12-03T05:57:26.613Z,17.50
2022-12-03T05:59:55.009Z,15.25
2022-12-03T06:02:23.567Z,15.73
2022-12-03T06:04:52.603Z,15.32
2022-12-03T06:07:21.188Z,14.98
2022-12-03T06:09:49.585Z,13.63
2022-12-03T06:12:19.265Z,13.40
2022-12-03T06:14:48.203Z,14.10
2022-12-03T06:17:16.607Z,14.60
2022-12-03T06:19:44.957Z,13.02
2022-12-03T06:22:13.440Z,14.93
2022-12-03T06:24:42.049Z,14.45
2022-12-03T06:27:10.469Z,13.50
2022-12-03T06:29:40.231Z,13.63
2022-12-03T06:32:08.771Z,11.70
2022-12-03T06:34:37.213Z,13.43
2022-12-03T06:37:05.744Z,13.20
2022-12-03T06:39:34.378Z,13.07
2022-12-03T06:42:03.329Z,13.27
2022-12-03T06:44:31.712Z,13.80
2022-12-03T06:47:01.469Z,14.55
2022-12-03T06:49:29.998Z,15.27
2022-12-03T06:51:58.600Z,12.77
2022-12-03T06:54:27.033Z,13.85
2022-12-03T06:56:55.411Z,16.50
2022-12-03T06:59:23.823Z,13.38
2022-12-03T07:01:52.307Z,12.70
2022-12-03T07:04:22.091Z,13.10
2022-12-03T07:06:50.461Z,14.35
2022-12-03T07:09:18.824Z,13.65
2022-12-03T07:11:47.257Z,13.25
2022-12-03T07:14:15.824Z,16.70
2022-12-03T07:16:44.475Z,13.30
2022-12-03T07:19:13.321Z,12.85
2022-12-03T07:21:43.149Z,15.23
2022-12-03T07:24:12.190Z,13.52
2022-12-03T07:26:40.731Z,15.50
2022-12-03T07:29:09.218Z,17.75
2022-12-03T07:31:37.611Z,16.42
2022-12-03T07:34:06.034Z,17.17
2022-12-03T07:36:36.003Z,15.38
2022-12-03T07:39:06.593Z,14.23
2022-12-03T07:41:35.205Z,13.63
2022-12-03T07:44:07.842Z,13.70
2022-12-03T07:46:41.173Z,12.63
2022-12-03T07:49:09.773Z,14.38
2022-12-03T07:51:38.427Z,15.90
2022-12-03T07:54:08.644Z,14.60
2022-12-03T07:56:37.660Z,19.02
2022-12-03T07:59:06.547Z,13.80
2022-12-03T08:01:35.272Z,16.73
2022-12-03T08:04:03.794Z,14.70
2022-12-03T08:06:32.689Z,13.50
2022-12-03T08:09:01.221Z,13.07
2022-12-03T08:11:31.286Z,13.82
2022-12-03T08:13:59.913Z,13.73
2022-12-03T08:16:31.683Z,16.50
2022-12-03T08:19:00.161Z,13.70
2022-12-03T08:21:33.923Z,17.55
2022-12-03T08:24:13.949Z,15.38
2022-12-03T08:26:44.953Z,13.60
2022-12-03T08:29:15.280Z,17.10
2022-12-03T08:31:48.376Z,16.02
2022-12-03T08:34:19.784Z,15.10
2022-12-03T08:36:48.995Z,13.90
2022-12-03T08:39:34.291Z,19.42
2022-12-03T08:42:30.914Z,16.50
2022-12-03T08:45:10.926Z,14.57
2022-12-03T08:47:40.282Z,14.32
2022-12-03T08:50:27.367Z,14.70
2022-12-03T08:53:00.681Z,16.08
2022-12-03T08:55:36.814Z,13.43
2022-12-03T08:58:19.798Z,19.23
2022-12-03T09:00:49.566Z,13.95
2022-12-03T09:03:20.227Z,15.73
2022-12-03T09:05:48.659Z,12.88
2022-12-03T09:08:17.122Z,12.45
2022-12-03T09:10:45.920Z,14.57
2022-12-03T09:13:15.656Z,16.67
2022-12-03T09:15:44.134Z,14.13
2022-12-03T09:18:14.291Z,15.68
2022-12-03T09:20:42.845Z,14.48
2022-12-03T09:23:11.267Z,15.98
2022-12-03T09:25:39.756Z,15.10
2022-12-03T09:28:08.256Z,15.65
2022-12-03T09:30:38.742Z,15.10
2022-12-03T09:33:07.332Z,15.30
2022-12-03T09:35:35.861Z,13.88
2022-12-03T09:38:04.578Z,18.33
2022-12-03T09:40:33.026Z,13.05
2022-12-03T09:43:01.702Z,15.55
2022-12-03T09:45:31.030Z,16.65
2022-12-03T09:48:02.900Z,15.45
2022-12-03T09:50:32.196Z,18.10
2022-12-03T09:53:04.060Z,15.65
2022-12-03T09:55:33.191Z,13.93
2022-12-03T09:58:01.606Z,14.20
2022-12-03T10:00:31.225Z,16.25
2022-12-03T10:03:05.551Z,15.40
2022-12-03T10:05:35.179Z,13.30
2022-12-03T10:08:08.980Z,13.90
2022-12-03T10:10:40.009Z,13.75
2022-12-03T10:13:13.646Z,15.25
2022-12-03T10:15:42.175Z,15.27
2022-12-03T10:18:19.106Z,14.68
2022-12-03T10:20:48.125Z,19.17
2022-12-03T10:23:24.667Z,16.67
2022-12-03T10:25:55.533Z,14.82
2022-12-03T10:28:30.372Z,16.27
2022-12-03T10:31:00.013Z,18.17
2022-12-03T10:33:33.488Z,16.05
2022-12-03T10:36:24.348Z,15.93
2022-12-03T10:39:16.413Z,13.07
2022-12-03T10:41:45.807Z,14.70
2022-12-03T10:44:18.148Z,15.07
2022-12-03T10:47:05.228Z,15.13
2022-12-03T10:49:35.205Z,15.45
2022-12-03T10:52:04.213Z,14.30
2022-12-03T10:54:35.554Z,16.30
2022-12-03T10:57:04.724Z,14.25
2022-12-03T10:59:35.146Z,15.52
2022-12-03T11:02:04.900Z,14.35
2022-12-03T11:04:37.438Z,15.10
2022-12-03T11:07:15.488Z,16.67
2022-12-03T11:09:45.537Z,11.75
2022-12-03T11:12:19.900Z,16.48
2022-12-03T11:15:08.641Z,14.43
2022-12-03T11:17:49.509Z,13.50
2022-12-03T11:21:10.237Z,15.18
2022-12-03T11:24:18.350Z,13.88
2022-12-03T11:27:23.372Z,13.02
2022-12-03T11:30:01.593Z,13.93
2022-12-03T11:33:03.458Z,17.13
2022-12-03T11:35:59.320Z,11.85
2022-12-03T11:38:58.243Z,16.13
2022-12-03T11:41:31.675Z,15.27
2022-12-03T11:44:33.609Z,13.75
2022-12-03T11:47:13.551Z,15.93
2022-12-03T11:50:03.470Z,18.40
2022-12-03T11:52:43.208Z,16.20
2022-12-03T11:55:35.019Z,12.50
2022-12-03T11:58:07.109Z,15.75
2022-12-03T12:00:35.485Z,17.05
2022-12-03T12:03:06.675Z,15.48
2022-12-03T12:05:40.342Z,14.35
2022-12-03T12:08:19.907Z,18.48
2022-12-03T12:10:50.206Z,14.88
2022-12-03T12:13:52.106Z,15.50
2022-12-03T12:16:58.330Z,17.20
2022-12-03T12:19:35.380Z,15.90
2022-12-03T12:22:30.350Z,13.32
2022-12-03T12:25:04.382Z,16.70
2022-12-03T12:27:36.224Z,15.20
2022-12-03T12:30:25.891Z,14.13
2022-12-03T12:33:08.128Z,16.45
2022-12-03T12:35:36.926Z,15.32
2022-12-03T12:38:22.538Z,14.55
2022-12-03T12:40:51.541Z,13.85
2022-12-03T12:43:24.518Z,16.05
2022-12-03T12:48:55.208Z,16.30
2022-12-03T12:51:26.968Z,16.95
2022-12-03T12:54:03.848Z,17.27
2022-12-03T12:56:41.107Z,16.98
2022-12-03T12:59:16.040Z,14.60
2022-12-03T13:02:04.498Z,17.70
2022-12-03T13:04:40.247Z,13.85
2022-12-03T13:07:10.265Z,17.38
2022-12-03T13:09:57.025Z,16.38
2022-12-03T13:12:26.825Z,15.65
2022-12-03T13:15:00.834Z,18.85
2022-12-03T13:17:47.206Z,15.52
2022-12-03T13:20:20.874Z,17.02
2022-12-03T13:22:49.281Z,16.10
2022-12-03T13:26:00.194Z,12.48
2022-12-03T13:28:28.385Z,15.05
2022-12-03T13:31:14.866Z,18.27
2022-12-03T13:33:43.772Z,13.32
2022-12-03T13:36:16.201Z,17.67
2022-12-03T13:39:08.984Z,16.38
2022-12-03T13:41:55.000Z,18.67
2022-12-03T13:44:23.602Z,17.65
2022-12-03T13:47:19.878Z,17.33
2022-12-03T13:52:41.353Z,16.98
2022-12-03T13:55:12.667Z,18.77
2022-12-03T13:57:41.110Z,16.23
2022-12-03T14:00:11.083Z,22.90
2022-12-03T14:02:49.091Z,19.48
2022-12-03T14:05:17.844Z,17.67
2022-12-03T14:07:48.161Z,16.48
2022-12-03T14:10:17.299Z,17.95
2022-12-03T14:12:57.840Z,18.63
2022-12-03T14:15:26.782Z,17.27
2022-12-03T14:17:55.418Z,17.42
2022-12-03T14:20:26.330Z,14.70
2022-12-03T14:23:03.725Z,17.33
2022-12-03T14:25:32.201Z,17.92
2022-12-03T14:28:01.363Z,19.42
2022-12-03T14:30:31.528Z,17.42
2022-12-03T14:33:14.798Z,20.23
2022-12-03T14:35:43.188Z,16.48
2022-12-03T14:38:12.997Z,18.13
2022-12-03T14:40:41.445Z,18.85
2022-12-03T14:43:22.851Z,16.42
2022-12-03T14:45:51.388Z,19.98
2022-12-03T14:48:22.494Z,15.32
2022-12-03T14:50:51.340Z,16.63
2022-12-03T14:53:30.300Z,14.90
2022-12-03T14:55:59.287Z,17.80
2022-12-03T14:58:27.903Z,15.93
2022-12-03T15:00:56.698Z,17.35
2022-12-03T15:03:50.020Z,17.33
2022-12-03T15:06:18.589Z,16.92
2022-12-03T15:08:49.318Z,17.67
2022-12-03T15:11:33.302Z,16.27
2022-12-03T15:14:03.768Z,18.40
2022-12-03T15:16:37.209Z,23.50
2022-12-03T15:19:40.523Z,20.08
2022-12-03T15:22:11.642Z,17.27
2022-12-03T15:25:07.069Z,17.85
2022-12-03T15:27:41.429Z,14.57
2022-12-03T15:30:10.923Z,21.20
2022-12-03T15:33:02.516Z,21.25
2022-12-03T15:35:31.100Z,18.60
2022-12-03T15:37:59.745Z,19.42
2022-12-03T15:40:31.088Z,18.73
2022-12-03T15:42:59.760Z,19.38
2022-12-03T15:45:28.266Z,17.92
2022-12-03T15:47:56.851Z,20.70
2022-12-03T15:50:25.582Z,19.02
2022-12-03T15:52:56.649Z,21.33
2022-12-03T15:55:25.502Z,18.73
2022-12-03T15:57:55.425Z,20.83
2022-12-03T16:00:23.902Z,19.38
2022-12-03T16:02:53.036Z,19.75
2022-12-03T16:05:23.913Z,17.35
2022-12-03T16:07:54.955Z,19.90
2022-12-03T16:10:23.680Z,17.55
2022-12-03T16:12:55.829Z,24.52
2022-12-03T16:15:27.245Z,20.70
2022-12-03T16:17:56.058Z,20.27
2022-12-03T16:20:24.726Z,18.55
2022-12-03T16:22:53.369Z,16.70
2022-12-03T16:25:21.906Z,19.00
2022-12-03T16:27:50.469Z,18.52
2022-12-03T16:30:20.676Z,19.02
2022-12-03T16:32:51.631Z,18.23
2022-12-03T16:35:20.324Z,20.67
2022-12-03T16:37:49.041Z,18.95
2022-12-03T16:40:17.833Z,21.70
2022-12-03T16:42:46.405Z,21.40
2022-12-03T16:45:33.883Z,19.65
2022-12-03T16:48:07.073Z,18.75
2022-12-03T16:50:37.593Z,22.67
2022-12-03T16:53:06.408Z,22.25
2022-12-03T16:55:34.829Z,21.95
2022-12-03T16:58:03.257Z,20.85
2022-12-03T17:00:31.743Z,23.63
2022-12-03T17:03:00.318Z,24.33
2022-12-03T17:05:30.268Z,21.73
2022-12-03T17:07:58.714Z,23.88
2022-12-03T17:10:27.210Z,24.75
2022-12-03T17:13:11.213Z,25.30
2022-12-03T17:15:39.918Z,23.63
2022-12-03T17:18:09.352Z,19.77
2022-12-03T17:20:39.131Z,20.55
2022-12-03T17:23:08.048Z,23.83
2022-12-03T17:25:36.557Z,24.33
2022-12-03T17:28:05.101Z,23.00
2022-12-03T17:30:33.555Z,23.10
2022-12-03T17:33:03.358Z,22.65
2022-12-03T17:35:33.781Z,22.20
2022-12-03T17:38:03.854Z,19.00
2022-12-03T17:40:32.664Z,23.35
2022-12-03T17:43:01.228Z,23.77
2022-12-03T17:45:29.638Z,22.30
2022-12-03T17:47:58.171Z,24.67
2022-12-03T17:50:26.684Z,23.95
2022-12-03T17:52:55.794Z,26.17
2022-12-03T17:55:34.687Z,25.30
2022-12-03T17:58:06.119Z,22.48
2022-12-03T18:00:35.335Z,24.02
2022-12-03T18:03:04.161Z,23.65
2022-12-03T18:05:32.787Z,23.60
2022-12-03T18:08:01.344Z,25.05
2022-12-03T18:10:31.312Z,21.42
2022-12-03T18:13:02.215Z,24.95
2022-12-03T18:15:31.249Z,22.40
2022-12-03T18:17:59.652Z,27.73
2022-12-03T18:20:28.169Z,25.60
2022-12-03T18:22:56.805Z,23.30
2022-12-03T18:25:25.206Z,20.45
2022-12-03T18:27:55.284Z,25.52
2022-12-03T18:30:24.384Z,29.40
2022-12-03T18:32:52.877Z,23.15
2022-12-03T18:35:21.718Z,24.90
2022-12-03T18:37:51.946Z,19.73
2022-12-03T18:40:24.527Z,23.25
2022-12-03T18:42:56.664Z,27.05
2022-12-03T18:45:25.184Z,25.38
2022-12-03T18:47:54.643Z,28.02
2022-12-03T18:50:23.101Z,28.30
2022-12-03T18:52:51.634Z,23.95
2022-12-03T18:55:21.556Z,24.73
2022-12-03T18:57:50.524Z,27.10
2022-12-03T19:00:21.509Z,20.92
2022-12-03T19:03:05.801Z,26.40
2022-12-03T19:05:36.470Z,24.10
2022-12-03T19:08:12.500Z,26.05
2022-12-03T19:10:42.296Z,24.48
2022-12-03T19:13:10.820Z,24.08
2022-12-03T19:18:59.412Z,23.95
2022-12-03T19:21:33.534Z,25.33
2022-12-03T19:26:54.452Z,28.73
2022-12-03T19:29:23.374Z,28.35
2022-12-03T19:31:53.421Z,30.23
2022-12-03T19:34:21.906Z,26.35
2022-12-03T19:36:50.229Z,26.63
2022-12-03T19:39:18.840Z,24.83
2022-12-03T19:41:47.832Z,33.28
2022-12-03T19:44:18.515Z,29.27
2022-12-03T19:46:46.925Z,26.02
2022-12-03T19:49:18.503Z,22.95
2022-12-03T19:51:46.920Z,27.27
2022-12-03T19:54:15.350Z,25.23
2022-12-03T19:56:44.590Z,30.73
2022-12-03T19:59:14.018Z,28.88
2022-12-03T20:01:43.314Z,27.08
2022-12-03T20:04:13.290Z,23.90
2022-12-03T20:06:45.314Z,24.42
2022-12-03T20:09:17.665Z,27.25
2022-12-03T20:11:46.513Z,23.58
2022-12-03T20:14:16.992Z,27.95
2022-12-03T20:16:45.835Z,23.00
2022-12-03T20:19:16.624Z,26.15
2022-12-03T20:21:46.509Z,27.13
2022-12-03T20:24:17.431Z,24.73
2022-12-03T20:26:45.964Z,25.02
2022-12-03T20:29:14.841Z,21.27
2022-12-03T20:31:43.311Z,24.52
2022-12-03T20:34:12.405Z,27.77
2022-12-03T20:36:40.788Z,17.70
2022-12-03T20:39:11.385Z,29.08
2022-12-03T20:41:39.848Z,24.95
2022-12-03T20:44:08.325Z,24.25
2022-12-03T20:46:37.260Z,25.85
2022-12-03T20:49:05.686Z,29.83
2022-12-03T20:51:34.148Z,25.42
2022-12-03T20:54:03.330Z,26.13
2022-12-03T20:56:34.747Z,24.23
2022-12-03T20:59:04.720Z,22.65
2022-12-03T21:01:34.301Z,26.38
2022-12-03T21:04:04.608Z,26.83
2022-12-03T21:06:34.308Z,24.20
2022-12-03T21:09:04.232Z,23.35
2022-12-03T21:11:35.832Z,23.30
2022-12-03T21:14:05.091Z,18.40
2022-12-03T21:17:06.661Z,17.25
2022-12-03T21:19:26.368Z,25.63
2022-12-03T21:21:55.945Z,26.88
2022-12-03T21:24:24.437Z,28.35
2022-12-03T21:26:54.375Z,24.17
2022-12-03T21:29:23.043Z,18.55
2022-12-03T21:31:51.619Z,23.88
2022-12-03T21:34:20.410Z,20.75
2022-12-03T21:36:48.894Z,23.15
2022-12-03T21:39:18.669Z,24.55
2022-12-03T21:42:34.919Z,22.35
2022-12-03T21:44:37.144Z,23.70
2022-12-03T21:47:12.464Z,20.20
2022-12-03T21:49:42.536Z,20.27
2022-12-03T21:52:11.260Z,24.70
2022-12-03T21:54:39.754Z,20.85
2022-12-03T21:57:08.266Z,21.70
2022-12-03T21:59:38.139Z,24.13
2022-12-03T22:02:07.547Z,21.63
2022-12-03T22:04:36.126Z,24.30
2022-12-03T22:07:05.551Z,22.15
2022-12-03T22:09:34.121Z,18.58
2022-12-03T22:12:02.622Z,22.20
2022-12-03T22:14:31.421Z,18.65
2022-12-03T22:17:01.141Z,23.05
2022-12-03T22:19:29.840Z,21.52
2022-12-03T22:21:58.417Z,20.98
2022-12-03T22:24:27.031Z,22.20
2022-12-03T22:26:55.748Z,21.70
2022-12-03T22:29:24.193Z,23.17
2022-12-03T22:31:52.807Z,21.00
2022-12-03T22:34:22.873Z,21.83
2022-12-03T22:36:51.450Z,20.00
2022-12-03T22:39:19.896Z,20.00
2022-12-03T22:41:48.484Z,21.63
2022-12-03T22:44:17.019Z,23.48
2022-12-03T22:46:45.558Z,22.10
2022-12-03T22:49:14.564Z,16.52
2022-12-03T22:51:46.264Z,23.10
2022-12-03T22:54:18.281Z,23.23
2022-12-03T22:56:50.955Z,22.70
2022-12-03T22:59:19.368Z,21.67
2022-12-03T23:01:47.886Z,20.55
2022-12-03T23:04:16.723Z,18.88
2022-12-03T23:06:46.787Z,20.95
2022-12-03T23:09:15.494Z,23.67
2022-12-03T23:11:44.603Z,22.30
2022-12-03T23:14:13.994Z,22.48
2022-12-03T23:16:42.715Z,20.83
2022-12-03T23:19:11.525Z,22.98
2022-12-03T23:21:39.977Z,20.27
2022-12-03T23:24:11.108Z,21.13
2022-12-03T23:26:40.336Z,21.38
2022-12-03T23:29:08.904Z,19.48
2022-12-03T23:31:37.445Z,23.08
2022-12-03T23:34:06.652Z,21.77
2022-12-03T23:36:35.653Z,19.42
2022-12-03T23:39:04.827Z,18.73
2022-12-03T23:41:34.525Z,21.52
2022-12-03T23:44:03.023Z,19.27
2022-12-03T23:46:31.593Z,22.55
2022-12-03T23:49:00.679Z,20.42
2022-12-03T23:51:29.259Z,21.52
2022-12-03T23:53:57.913Z,18.98
2022-12-03T23:56:28.199Z,22.17
2022-12-03T23:58:58.659Z,22.33
